الصفحة الرئيسية
METAR-TAF:

METAR-TAF

مطار :

مطار كاوهسيونغ الدولي

كاوهسيونغ, تايوان

دائرة عرض: 22-35N, خط طول: 120-21E, ارتفاع: 9 متر

مراقبة الطقس الحالي

تاريخ ووقت الإصدار 1ساعة و 9 دقيقة قبل الساعة 17:00UTC
ريح 2 عقدةمن اتجاهات متغيرة
درجة الحرارة 29°درجة مئوية
الرطوبة 84%
ضغط 1007 hPa
الرؤية 10 كم أو أكثر
غيوم قليلة على ارتفاع 1200 قدم
غيوم متفرقة على ارتفاع 2000 قدم

METAR: RCKH 141700Z VRB02KT 9999 FEW012 SCT020 29/26 Q1007 NOSIG RMK A2975

زمن: 02:09 (18:09 UTC)

توقعات

تاريخ ووقت الإصدار 1ساعة و 9 دقيقة قبل الساعة 17:00UTC
التوقعات صالحة من14 الساعة 18 UTC إلى 15 الساعة 24 UTC
ريح 5 عقدة من الجنوب الغربي
الرؤية 10 كم أو أكثر
غيوم قليلة على ارتفاع 1500 قدم
غيوم مفككة على ارتفاع 3200 قدم
مؤقت
من 14 الساعة 18 UTC إلى 14 الساعة 24 UTC
ريح 5 عقدة من الشرق/الشمال الشرقي
الرؤية: 5000 متر
غيوم قليلة على ارتفاع 1000 قدم
غيوم مفككة على ارتفاع 1800 قدم
زخات من المطر
مؤقت
من 15 الساعة 02 UTC إلى 15 الساعة 08 UTC
ريح 10 عقدة من الجنوب الغربي

TAF: RCKH 141700Z 1418/1524 22005KT 9999 FEW015 BKN032 TEMPO 1418/1424 07005KT 5000 SHRA FEW010 BKN018 TEMPO 1502/1508 23010KT

أرصاد الطقس والتوقعات من أكثر من 4000 مطار (تقارير الطقس للمطار METAR والتنبؤ بالطقس بالمطارTAF).

المحطات المتاحة هي النقط الصفراء والحمراء على الخريطة.

حرك المؤشر فوق النقطة لمعرفة اسم المحطة.

ثم انقر لمعرفة أرصاد وتوقعات الطقس.

لتغيير الخارطة: اضغط على الأزرار الخضراء مع رمز الصليب الأسود للتكبير. على الزر الأخضر مع شرطة للتصغير، أو على الأسهم الخضراء للخرائط المجاورة.


METAR-TAF: